createdAt,value
2019-02-04T00:02:56.920Z,99.90
2019-02-04T00:05:58.301Z,99.90
2019-02-04T00:08:59.631Z,99.90
2019-02-04T00:12:00.050Z,99.90
2019-02-04T00:15:00.748Z,99.90
2019-02-04T00:18:02.312Z,99.90
2019-02-04T00:21:03.006Z,99.90
2019-02-04T00:24:03.641Z,99.90
2019-02-04T00:27:04.120Z,99.90
2019-02-04T00:30:04.924Z,99.90
2019-02-04T00:33:06.069Z,99.90
2019-02-04T00:36:06.472Z,99.90
2019-02-04T00:39:06.909Z,99.90
2019-02-04T00:42:07.281Z,99.90
2019-02-04T00:45:08.029Z,99.90
2019-02-04T00:48:08.876Z,99.90
2019-02-04T00:51:09.372Z,99.90
2019-02-04T00:54:09.966Z,99.90
2019-02-04T00:57:10.637Z,99.90
2019-02-04T01:00:11.366Z,99.90
2019-02-04T01:03:12.977Z,99.90
2019-02-04T01:06:14.324Z,99.90
2019-02-04T01:09:15.216Z,99.90
2019-02-04T01:12:16.505Z,99.90
2019-02-04T01:15:16.753Z,99.90
2019-02-04T01:18:18.005Z,99.90
2019-02-04T01:21:18.709Z,99.90
2019-02-04T01:24:19.099Z,99.90
2019-02-04T01:27:19.725Z,99.90
2019-02-04T01:30:20.712Z,99.90
2019-02-04T01:33:21.019Z,99.90
2019-02-04T01:36:21.950Z,99.90
2019-02-04T01:39:22.833Z,99.90
2019-02-04T01:42:23.070Z,99.90
2019-02-04T01:45:23.494Z,99.90
2019-02-04T01:48:23.924Z,99.90
2019-02-04T01:51:25.039Z,99.90
2019-02-04T01:54:25.505Z,99.90
2019-02-04T01:57:14.003Z,99.90
2019-02-04T02:07:02.240Z,99.90
2019-02-04T02:10:03.382Z,99.90
2019-02-04T02:13:03.715Z,99.90
2019-02-04T02:16:04.542Z,99.90
2019-02-04T02:19:05.159Z,99.90
2019-02-04T02:22:06.273Z,99.90
2019-02-04T02:25:07.500Z,99.90
2019-02-04T02:28:07.825Z,99.90
2019-02-04T02:31:08.183Z,99.90
2019-02-04T02:34:08.849Z,99.90
2019-02-04T02:37:10.045Z,99.90
2019-02-04T02:40:10.280Z,99.90
2019-02-04T02:43:11.879Z,99.90
2019-02-04T02:46:13.307Z,99.90
2019-02-04T02:49:14.661Z,99.90
2019-02-04T02:52:16.028Z,99.90
2019-02-04T02:55:16.645Z,99.90
2019-02-04T02:58:17.337Z,99.90
2019-02-04T03:01:18.058Z,99.90
2019-02-04T03:04:19.283Z,99.90
2019-02-04T03:07:20.174Z,99.90
2019-02-04T03:10:20.534Z,99.90
2019-02-04T03:13:21.729Z,99.90
2019-02-04T03:16:22.046Z,99.90
2019-02-04T03:19:22.481Z,99.90
2019-02-04T03:22:22.994Z,99.90
2019-02-04T03:25:23.872Z,99.90
2019-02-04T03:28:24.461Z,99.90
2019-02-04T03:31:25.124Z,99.90
2019-02-04T03:34:25.649Z,99.90
2019-02-04T03:37:26.134Z,99.90
2019-02-04T03:40:26.700Z,99.90
2019-02-04T03:43:27.992Z,99.90
2019-02-04T03:46:28.259Z,99.90
2019-02-04T03:49:28.702Z,99.90
2019-02-04T03:52:29.656Z,99.90
2019-02-04T03:55:30.809Z,99.90
2019-02-04T03:58:31.859Z,99.90
2019-02-04T04:01:32.647Z,99.90
2019-02-04T04:04:33.893Z,99.90
2019-02-04T04:07:34.591Z,99.90
2019-02-04T04:10:36.053Z,99.90
2019-02-04T04:13:36.894Z,99.90
2019-02-04T04:16:25.624Z,99.90
2019-02-04T04:19:33.487Z,99.90
2019-02-04T04:22:34.289Z,99.90
2019-02-04T04:25:34.837Z,99.90
2019-02-04T04:28:35.353Z,99.90
2019-02-04T04:31:36.094Z,99.90
2019-02-04T04:34:36.832Z,99.90
2019-02-04T04:37:37.372Z,99.90
2019-02-04T04:40:45.222Z,99.90
2019-02-04T04:43:53.368Z,99.90
2019-02-04T04:46:54.396Z,99.90
2019-02-04T04:49:54.972Z,99.90
2019-02-04T04:52:55.549Z,99.90
2019-02-04T04:55:55.853Z,99.90
2019-02-04T04:58:56.702Z,99.90
2019-02-04T05:01:57.104Z,99.90
2019-02-04T05:04:57.920Z,99.90
2019-02-04T05:07:58.719Z,99.90
2019-02-04T05:10:59.695Z,99.90
2019-02-04T05:13:59.979Z,99.90
2019-02-04T05:17:01.173Z,99.90
2019-02-04T05:20:01.957Z,99.90
2019-02-04T05:23:02.602Z,99.90
2019-02-04T05:26:03.466Z,99.90
2019-02-04T05:29:03.834Z,99.90
2019-02-04T05:32:04.178Z,99.90
2019-02-04T05:35:04.412Z,99.90
2019-02-04T05:38:04.702Z,99.90
2019-02-04T05:41:05.253Z,99.90
2019-02-04T05:44:06.001Z,99.90
2019-02-04T05:47:06.494Z,99.90
2019-02-04T05:50:07.181Z,99.90
2019-02-04T05:53:07.537Z,99.90
2019-02-04T05:56:08.365Z,99.90
2019-02-04T05:59:08.943Z,99.90
2019-02-04T06:02:09.610Z,99.90
2019-02-04T06:05:10.321Z,99.90
2019-02-04T06:08:10.970Z,99.90
2019-02-04T06:11:11.493Z,99.90
2019-02-04T06:14:12.242Z,99.90
2019-02-04T06:17:12.658Z,99.90
2019-02-04T06:20:13.369Z,99.90
2019-02-04T06:23:14.020Z,99.90
2019-02-04T06:26:14.909Z,99.90
2019-02-04T06:29:15.446Z,99.90
2019-02-04T06:32:15.930Z,99.90
2019-02-04T06:35:16.730Z,99.90
2019-02-04T06:38:17.504Z,99.90
2019-02-04T06:41:18.085Z,99.90
2019-02-04T06:44:18.886Z,99.90
2019-02-04T06:47:19.409Z,99.90
2019-02-04T06:50:19.869Z,99.90
2019-02-04T06:53:20.600Z,99.90
2019-02-04T06:56:21.267Z,99.90
2019-02-04T06:59:21.704Z,99.90
2019-02-04T07:02:22.417Z,99.90
2019-02-04T07:05:23.359Z,99.90
2019-02-04T07:08:24.089Z,99.90
2019-02-04T07:11:24.797Z,99.90
2019-02-04T07:14:25.605Z,99.90
2019-02-04T07:17:25.918Z,99.90
2019-02-04T07:20:26.943Z,99.90
2019-02-04T07:23:27.394Z,99.90
2019-02-04T07:26:28.233Z,99.90
2019-02-04T07:29:28.994Z,99.90
2019-02-04T07:32:29.585Z,99.90
2019-02-04T07:35:30.214Z,99.90
2019-02-04T07:38:30.616Z,99.90
2019-02-04T07:41:31.118Z,99.90
2019-02-04T07:44:31.521Z,99.90
2019-02-04T07:47:32.105Z,99.90
2019-02-04T07:50:32.419Z,99.90
2019-02-04T07:53:32.817Z,99.90
2019-02-04T07:56:33.126Z,99.90
2019-02-04T07:59:33.621Z,99.90
2019-02-04T08:02:34.061Z,99.90
2019-02-04T08:05:34.825Z,99.90
2019-02-04T08:08:35.917Z,99.90
2019-02-04T08:11:36.533Z,99.90
2019-02-04T08:14:36.838Z,99.90
2019-02-04T08:17:37.157Z,99.90
2019-02-04T08:20:37.498Z,99.90
2019-02-04T08:23:37.817Z,99.90
2019-02-04T08:26:38.312Z,99.90
2019-02-04T08:29:38.850Z,99.90
2019-02-04T08:32:39.641Z,99.90
2019-02-04T08:35:40.061Z,99.90
2019-02-04T08:38:41.489Z,99.90
2019-02-04T08:41:42.303Z,99.90
2019-02-04T08:44:42.745Z,99.90
2019-02-04T08:47:43.254Z,99.90
2019-02-04T08:50:43.808Z,99.90
2019-02-04T08:53:44.993Z,99.90
2019-02-04T08:56:45.434Z,99.90
2019-02-04T08:59:45.735Z,98.60
2019-02-04T09:02:46.366Z,97.50
2019-02-04T09:05:46.910Z,99.90
2019-02-04T09:08:47.884Z,99.90
2019-02-04T09:11:48.267Z,97.50
2019-02-04T09:14:48.777Z,96.40
2019-02-04T09:17:49.680Z,93.70
2019-02-04T09:20:50.188Z,91.70
2019-02-04T09:23:50.556Z,90.90
2019-02-04T09:26:51.986Z,84.40
2019-02-04T09:29:52.363Z,86.10
2019-02-04T09:32:53.695Z,79.60
2019-02-04T09:35:54.917Z,75.80
2019-02-04T09:38:56.508Z,76.80
2019-02-04T09:41:57.749Z,72.60
2019-02-04T09:44:58.920Z,70.30
2019-02-04T09:48:00.345Z,68.30
2019-02-04T09:51:01.458Z,65.30
2019-02-04T09:57:20.137Z,68.00
2019-02-04T10:00:21.986Z,67.30
2019-02-04T10:03:22.826Z,69.40
2019-02-04T10:06:24.377Z,68.70
2019-02-04T10:09:25.731Z,66.30
2019-02-04T10:12:27.451Z,63.20
2019-02-04T10:15:28.968Z,61.60
2019-02-04T10:18:30.537Z,59.80
2019-02-04T10:21:32.313Z,57.30
2019-02-04T10:24:34.007Z,57.10
2019-02-04T10:27:35.577Z,58.20
2019-02-04T10:30:37.454Z,58.60
2019-02-04T10:33:38.484Z,57.80
2019-02-04T10:36:39.206Z,63.50
2019-02-04T10:39:40.508Z,67.50
2019-02-04T10:42:41.790Z,67.40
2019-02-04T10:45:42.226Z,68.70
2019-02-04T10:48:43.573Z,69.30
2019-02-04T10:51:44.484Z,70.80
2019-02-04T10:54:45.008Z,70.40
2019-02-04T10:57:45.469Z,72.90
2019-02-04T11:00:46.298Z,70.60
2019-02-04T11:03:46.795Z,71.20
2019-02-04T11:06:47.593Z,70.50
2019-02-04T11:09:48.006Z,71.50
2019-02-04T11:12:48.596Z,66.70
2019-02-04T11:15:49.559Z,66.30
2019-02-04T11:18:51.208Z,59.40
2019-02-04T11:21:52.525Z,58.20
2019-02-04T11:24:54.438Z,62.40
2019-02-04T11:27:56.105Z,59.50
2019-02-04T11:30:57.584Z,60.60
2019-02-04T11:33:59.297Z,61.80
2019-02-04T11:37:00.489Z,59.00
2019-02-04T11:40:03.886Z,55.60
2019-02-04T11:43:04.945Z,54.60
2019-02-04T11:46:06.860Z,55.70
2019-02-04T11:49:07.996Z,51.90
2019-02-04T11:52:09.262Z,52.40
2019-02-04T11:55:10.865Z,50.90
2019-02-04T11:58:12.121Z,49.90
2019-02-04T12:01:01.668Z,52.80
2019-02-04T12:04:10.174Z,51.80
2019-02-04T12:07:11.703Z,55.50
2019-02-04T12:10:12.559Z,54.00
2019-02-04T12:13:14.318Z,50.60
2019-02-04T12:16:16.063Z,50.30
2019-02-04T12:19:17.410Z,46.10
2019-02-04T12:22:19.001Z,47.80
2019-02-04T12:25:20.647Z,48.70
2019-02-04T12:28:22.126Z,47.50
2019-02-04T12:31:23.557Z,45.80
2019-02-04T12:34:24.926Z,45.60
2019-02-04T12:37:26.621Z,45.60
2019-02-04T12:40:27.862Z,48.00
2019-02-04T12:43:29.191Z,46.30
2019-02-04T12:46:30.192Z,46.00
2019-02-04T12:49:31.373Z,45.40
2019-02-04T12:52:33.246Z,45.40
2019-02-04T12:55:34.943Z,44.60
2019-02-04T12:58:36.604Z,45.00
2019-02-04T13:01:38.128Z,44.80
2019-02-04T13:04:39.804Z,44.80
2019-02-04T13:07:41.508Z,44.50
2019-02-04T13:10:42.898Z,47.00
2019-02-04T13:13:44.399Z,49.30
2019-02-04T13:16:45.802Z,48.10
2019-02-04T13:19:47.292Z,51.80
2019-02-04T13:22:49.041Z,52.20
2019-02-04T13:25:50.878Z,49.90
2019-02-04T13:28:52.630Z,47.90
2019-02-04T13:31:53.846Z,48.40
2019-02-04T13:34:55.603Z,45.30
2019-02-04T13:37:57.416Z,45.90
2019-02-04T13:41:07.601Z,44.70
2019-02-04T13:44:01.466Z,46.20
2019-02-04T13:47:05.665Z,45.80
2019-02-04T13:50:06.001Z,43.50
2019-02-04T13:53:08.210Z,45.30
2019-02-04T13:56:09.954Z,42.80
2019-02-04T13:59:11.414Z,42.20
2019-02-04T14:02:13.467Z,42.30
2019-02-04T14:05:15.325Z,40.40
2019-02-04T14:08:17.020Z,42.00
2019-02-04T14:11:18.749Z,41.90
2019-02-04T14:14:20.063Z,40.50
2019-02-04T14:17:24.277Z,42.50
2019-02-04T14:20:24.660Z,42.70
2019-02-04T14:23:13.985Z,40.60
2019-02-04T14:26:22.532Z,38.20
2019-02-04T14:29:23.637Z,38.30
2019-02-04T14:32:25.444Z,38.10
2019-02-04T14:35:14.813Z,38.00
2019-02-04T14:41:45.593Z,39.40
2019-02-04T14:44:46.921Z,41.40
2019-02-04T14:47:48.521Z,42.10
2019-02-04T14:50:50.257Z,42.00
2019-02-04T14:53:51.288Z,40.00
2019-02-04T14:56:52.825Z,40.60
2019-02-04T14:59:54.359Z,39.90
2019-02-04T15:02:55.947Z,39.50
2019-02-04T15:05:56.880Z,39.40
2019-02-04T15:08:58.639Z,39.60
2019-02-04T15:11:59.358Z,41.00
2019-02-04T15:14:59.699Z,42.20
2019-02-04T15:18:00.358Z,44.00
2019-02-04T15:21:00.956Z,45.00
2019-02-04T15:24:08.900Z,45.60
2019-02-04T15:27:04.818Z,46.80
2019-02-04T15:30:05.146Z,46.80
2019-02-04T15:33:05.622Z,47.60
2019-02-04T15:36:07.114Z,48.40
2019-02-04T15:39:08.327Z,49.10
2019-02-04T15:42:09.150Z,49.60
2019-02-04T15:45:09.447Z,50.10
2019-02-04T15:48:10.442Z,50.10
2019-02-04T15:51:10.888Z,51.00
2019-02-04T15:54:11.922Z,51.70
2019-02-04T15:57:12.373Z,53.20
2019-02-04T16:00:13.614Z,54.50
2019-02-04T16:03:14.369Z,55.70
2019-02-04T16:06:14.846Z,56.90
2019-02-04T16:09:15.434Z,57.50
2019-02-04T16:12:16.642Z,58.20
2019-02-04T16:15:17.225Z,59.00
2019-02-04T16:18:17.690Z,59.90
2019-02-04T16:21:18.852Z,61.80
2019-02-04T16:24:19.315Z,63.80
2019-02-04T16:27:19.649Z,63.50
2019-02-04T16:30:20.314Z,63.70
2019-02-04T16:33:21.562Z,65.70
2019-02-04T16:36:22.076Z,66.10
2019-02-04T16:39:22.634Z,67.30
2019-02-04T16:42:23.163Z,73.80
2019-02-04T16:45:23.527Z,78.00
2019-02-04T16:48:24.267Z,81.10
2019-02-04T16:51:24.774Z,84.80
2019-02-04T16:54:25.646Z,85.60
2019-02-04T16:57:26.646Z,88.80
2019-02-04T17:00:27.916Z,90.50
2019-02-04T17:03:28.363Z,90.60
2019-02-04T17:06:29.664Z,91.00
2019-02-04T17:09:32.274Z,92.50
2019-02-04T17:12:33.681Z,94.80
2019-02-04T17:15:34.316Z,95.60
2019-02-04T17:18:35.247Z,95.50
2019-02-04T17:21:35.897Z,98.20
2019-02-04T17:24:36.419Z,98.80
2019-02-04T17:27:37.041Z,99.90
2019-02-04T17:30:37.465Z,99.90
2019-02-04T17:33:38.407Z,99.90
2019-02-04T17:36:39.647Z,99.90
2019-02-04T17:39:28.462Z,99.90
2019-02-04T17:42:36.408Z,99.90
2019-02-04T17:45:37.718Z,99.90
2019-02-04T17:48:38.099Z,99.90
2019-02-04T17:51:38.412Z,99.90
2019-02-04T17:54:38.791Z,99.90
2019-02-04T17:57:39.279Z,99.90
2019-02-04T18:00:45.096Z,99.90
2019-02-04T18:03:46.166Z,99.90
2019-02-04T18:06:46.621Z,99.90
2019-02-04T18:09:47.002Z,99.90
2019-02-04T18:12:47.289Z,99.90
2019-02-04T18:15:47.874Z,99.90
2019-02-04T18:18:48.401Z,99.90
2019-02-04T18:21:48.899Z,99.90
2019-02-04T18:24:49.719Z,99.90
2019-02-04T18:27:50.307Z,99.90
2019-02-04T18:30:51.685Z,99.90
2019-02-04T18:33:52.117Z,99.90
2019-02-04T18:36:52.561Z,99.90
2019-02-04T18:39:53.166Z,99.90
2019-02-04T18:42:54.311Z,99.90
2019-02-04T18:45:55.243Z,99.90
2019-02-04T18:48:56.939Z,99.90
2019-02-04T18:51:57.972Z,99.90
2019-02-04T18:54:58.690Z,99.90
2019-02-04T18:57:59.252Z,99.90
2019-02-04T19:01:00.724Z,99.90
2019-02-04T19:04:02.257Z,99.90
2019-02-04T19:07:03.448Z,99.90
2019-02-04T19:10:04.115Z,99.90
2019-02-04T19:13:05.320Z,99.90
2019-02-04T19:16:06.090Z,99.90
2019-02-04T19:19:06.559Z,99.90
2019-02-04T19:22:07.922Z,99.90
2019-02-04T19:25:08.469Z,99.90
2019-02-04T19:28:09.184Z,99.90
2019-02-04T19:31:10.898Z,99.90
2019-02-04T19:34:11.427Z,99.90
2019-02-04T19:37:12.779Z,99.90
2019-02-04T19:40:13.428Z,99.90
2019-02-04T19:43:14.268Z,99.90
2019-02-04T19:46:14.892Z,99.90
2019-02-04T19:49:16.025Z,99.90
2019-02-04T19:52:16.554Z,99.90
2019-02-04T19:55:17.664Z,99.90
2019-02-04T19:58:18.323Z,99.90
2019-02-04T20:01:18.727Z,99.90
2019-02-04T20:04:19.252Z,99.90
2019-02-04T20:07:19.751Z,99.90
2019-02-04T20:10:20.402Z,99.90
2019-02-04T20:13:20.843Z,99.90
2019-02-04T20:16:22.136Z,99.90
2019-02-04T20:19:23.267Z,99.90
2019-02-04T20:22:24.563Z,99.90
2019-02-04T20:25:25.725Z,99.90
2019-02-04T20:28:26.289Z,99.90
2019-02-04T20:31:26.741Z,99.90
2019-02-04T20:34:27.387Z,99.90
2019-02-04T20:37:27.927Z,99.90
2019-02-04T20:40:28.944Z,99.90
2019-02-04T20:43:29.690Z,99.90
2019-02-04T20:46:30.046Z,99.90
2019-02-04T20:49:31.484Z,99.90
2019-02-04T20:52:32.328Z,99.90
2019-02-04T20:55:33.747Z,99.90
2019-02-04T20:58:34.375Z,99.90
2019-02-04T21:01:35.412Z,99.90
2019-02-04T21:04:36.671Z,99.90
2019-02-04T21:07:37.107Z,99.90
2019-02-04T21:10:37.640Z,99.90
2019-02-04T21:13:38.130Z,99.90
2019-02-04T21:16:39.415Z,99.90
2019-02-04T21:19:39.797Z,99.90
2019-02-04T21:22:40.412Z,99.90
2019-02-04T21:25:41.489Z,99.90
2019-02-04T21:28:42.327Z,99.90
2019-02-04T21:31:42.754Z,99.90
2019-02-04T21:34:43.408Z,99.90
2019-02-04T21:37:44.230Z,99.90
2019-02-04T21:40:45.119Z,99.90
2019-02-04T21:43:46.170Z,99.90
2019-02-04T21:46:46.706Z,99.90
2019-02-04T21:49:47.081Z,99.90
2019-02-04T21:52:47.889Z,99.90
2019-02-04T21:55:48.664Z,99.90
2019-02-04T21:58:48.982Z,99.90
2019-02-04T22:01:49.584Z,99.90
2019-02-04T22:04:50.180Z,99.90
2019-02-04T22:07:50.554Z,99.90
2019-02-04T22:10:50.833Z,99.90
2019-02-04T22:13:51.271Z,99.90
2019-02-04T22:16:52.530Z,99.90
2019-02-04T22:19:52.889Z,99.90
2019-02-04T22:22:54.295Z,99.90
2019-02-04T22:25:54.879Z,99.90
2019-02-04T22:28:55.332Z,99.90
2019-02-04T22:31:55.735Z,99.90
2019-02-04T22:34:56.435Z,99.90
2019-02-04T22:37:57.109Z,99.90
2019-02-04T22:40:57.596Z,99.90
2019-02-04T22:43:57.914Z,99.90
2019-02-04T22:46:58.299Z,99.90
2019-02-04T22:49:58.733Z,99.90
2019-02-04T22:53:02.120Z,99.90
2019-02-04T22:56:01.756Z,99.90
2019-02-04T22:58:52.185Z,99.90
2019-02-04T23:02:00.005Z,99.90
2019-02-04T23:05:02.805Z,99.90
2019-02-04T23:07:51.342Z,99.90
2019-02-04T23:10:59.296Z,99.90
2019-02-04T23:14:00.046Z,99.90
2019-02-04T23:17:00.690Z,99.90
2019-02-04T23:20:01.302Z,99.90
2019-02-04T23:23:01.957Z,99.90
2019-02-04T23:26:02.309Z,99.90
2019-02-04T23:29:03.556Z,99.90
2019-02-04T23:32:04.794Z,99.90
2019-02-04T23:34:53.427Z,99.90
2019-02-04T23:38:01.362Z,99.90
2019-02-04T23:41:01.671Z,99.90
2019-02-04T23:44:02.129Z,99.90
2019-02-04T23:47:02.693Z,99.90
2019-02-04T23:50:03.300Z,99.90
2019-02-04T23:53:03.901Z,99.90
2019-02-04T23:56:04.351Z,99.90
2019-02-04T23:59:04.956Z,99.90
